PWSweather.com
Personal Weather Stations
Station Observations
KMILAPEE3
Lapeer Michigan, Lapeer, MI 48446

Lapeer MichiganLapeer, MI 48446

Lat: 43.057, Lon: -83.362

Elevation: 897

Station Type: Oregon Scientific WMR-968

Latest ConditionsUpdated 7:52:18 PM EDT Thursday, Aug 21, 2014
Currently Today's Max Today's Min Today's Average
Temperature 74.3°F23.5°C 77.7°F25.4°C 59.5°F15.3°C 68.6°F20.3°C
Dew Point 66.8°F19.3°C 72.8°F22.7°C 58.8°F14.9°C 65.3°F18.5°C
Winds Calm Calm 5.4 mph SSW8.7 kmh SSW - 1.2 mph 1.9 kmh
Wind Gusts 6.7 mph10.8 kmh 8.7 mph14.0 kmh - -
Humidity 77% 100% 71% 90%
Pressure 30.00 in1015.9 mb 30.06 in1017.9 mb 30.00 in1015.9 mb -
Hour Temp Dew Point Humidity Winds Wind Gusts Pressure Precip Precip Rate Daily Precip Total
07:52 PM 74.3°F23.5°C 66.8°F19.3°C 77% Calm Calm 6.7 mph10.8 kmh 30.00 in1015.9 mb 0.00 in0.0 mm 0.00 in/hr0.0 mm/hr 0.00 in0.0 mm
07:47 PM 74.3°F23.5°C 66.4°F19.1°C 76% 3.9 mph NNE6.3 kmh NNE 6.7 mph10.8 kmh 30.00 in1015.9 mb 0.00 in0.0 mm 0.00 in/hr0.0 mm/hr 0.00 in0.0 mm
07:42 PM 74.5°F23.6°C 66.6°F19.2°C 76% 2.8 mph N4.5 kmh N 6.7 mph10.8 kmh 30.00 in1015.9 mb 0.00 in0.0 mm 0.00 in/hr0.0 mm/hr 0.00 in0.0 mm
07:37 PM 74.7°F23.7°C 66.8°F19.3°C 76% 3.5 mph N5.6 kmh N 5.5 mph8.9 kmh 30.00 in1015.9 mb 0.00 in0.0 mm 0.00 in/hr0.0 mm/hr 0.00 in0.0 mm
07:31 PM 74.8°F23.8°C 66.9°F19.4°C 76% 2.8 mph N4.5 kmh N 5.0 mph8.0 kmh 30.00 in1015.9 mb 0.00 in0.0 mm 0.00 in/hr0.0 mm/hr 0.00 in0.0 mm
07:26 PM 74.8°F23.8°C 66.8°F19.3°C 76% Calm Calm 5.5 mph8.9 kmh 30.00 in1015.9 mb 0.00 in0.0 mm 0.00 in/hr0.0 mm/hr 0.00 in0.0 mm
07:20 PM 75.0°F23.9°C 67.0°F19.4°C 76% 3.7 mph N6.0 kmh N 5.5 mph8.9 kmh 30.00 in1015.9 mb 0.00 in0.0 mm 0.00 in/hr0.0 mm/hr 0.00 in0.0 mm
07:15 PM 75.2°F24.0°C 66.8°F19.3°C 75% Calm Calm 4.9 mph7.9 kmh 30.00 in1015.9 mb 0.00 in0.0 mm 0.00 in/hr0.0 mm/hr 0.00 in0.0 mm
07:10 PM 75.2°F24.0°C 66.8°F19.3°C 75% Calm Calm 7.4 mph11.9 kmh 30.00 in1015.9 mb 0.00 in0.0 mm 0.00 in/hr0.0 mm/hr 0.00 in0.0 mm
07:04 PM 75.4°F24.1°C 67.0°F19.4°C 75% 4.5 mph N7.2 kmh N 8.0 mph12.9 kmh 30.00 in1015.9 mb 0.00 in0.0 mm 0.00 in/hr0.0 mm/hr 0.00 in0.0 mm
06:59 PM 75.4°F24.1°C 66.9°F19.4°C 75% 3.7 mph N6.0 kmh N 8.0 mph12.9 kmh 30.00 in1015.9 mb 0.00 in0.0 mm 0.00 in/hr0.0 mm/hr 0.00 in0.0 mm
06:54 PM 75.6°F24.2°C 67.1°F19.5°C 75% 2.8 mph N4.5 kmh N 4.3 mph6.9 kmh 30.00 in1015.9 mb 0.00 in0.0 mm 0.00 in/hr0.0 mm/hr 0.00 in0.0 mm
06:49 PM 75.6°F24.2°C 67.1°F19.5°C 75% Calm Calm 3.7 mph6.0 kmh 30.00 in1015.9 mb 0.00 in0.0 mm 0.00 in/hr0.0 mm/hr 0.00 in0.0 mm
06:44 PM 75.6°F24.2°C 67.1°F19.5°C 75% Calm Calm 5.5 mph8.9 kmh 30.00 in1015.9 mb 0.00 in0.0 mm 0.00 in/hr0.0 mm/hr 0.00 in0.0 mm
06:39 PM 75.7°F24.3°C 66.8°F19.3°C 73% 3.2 mph N5.1 kmh N 5.5 mph8.9 kmh 30.00 in1015.9 mb 0.00 in0.0 mm 0.00 in/hr0.0 mm/hr 0.00 in0.0 mm
06:33 PM 75.7°F24.3°C 66.7°F19.3°C 73% 2.8 mph N4.5 kmh N 4.9 mph7.9 kmh 30.00 in1015.9 mb 0.00 in0.0 mm 0.00 in/hr0.0 mm/hr 0.00 in0.0 mm
06:29 PM 75.9°F24.4°C 66.9°F19.4°C 73% 3.4 mph N5.5 kmh N 8.7 mph14.0 kmh 30.00 in1015.9 mb 0.00 in0.0 mm 0.00 in/hr0.0 mm/hr 0.00 in0.0 mm
06:24 PM 76.1°F24.5°C 67.1°F19.5°C 73% 4.5 mph N7.2 kmh N 8.7 mph14.0 kmh 30.00 in1015.9 mb 0.00 in0.0 mm 0.00 in/hr0.0 mm/hr 0.00 in0.0 mm
06:18 PM 76.3°F24.6°C 66.8°F19.3°C 72% 3.3 mph N5.3 kmh N 5.5 mph8.9 kmh 30.00 in1015.9 mb 0.00 in0.0 mm 0.00 in/hr0.0 mm/hr 0.00 in0.0 mm
06:13 PM 76.5°F24.7°C 67.0°F19.4°C 72% 2.8 mph NW4.5 kmh NW 5.5 mph8.9 kmh 30.00 in1015.9 mb 0.00 in0.0 mm 0.00 in/hr0.0 mm/hr 0.00 in0.0 mm
06:07 PM 76.6°F24.8°C 67.1°F19.5°C 72% Calm Calm 3.7 mph6.0 kmh 30.00 in1015.9 mb 0.00 in0.0 mm 0.00 in/hr0.0 mm/hr 0.00 in0.0 mm
06:02 PM 76.8°F24.9°C 67.3°F19.6°C 72% Calm Calm 4.9 mph7.9 kmh 30.00 in1015.9 mb 0.00 in0.0 mm 0.00 in/hr0.0 mm/hr 0.00 in0.0 mm
05:57 PM 76.8°F24.9°C 66.8°F19.3°C 71% Calm Calm 5.5 mph8.9 kmh 30.00 in1015.9 mb 0.00 in0.0 mm 0.00 in/hr0.0 mm/hr 0.00 in0.0 mm
05:52 PM 77.0°F25.0°C 67.0°F19.4°C 71% 3.4 mph NW5.5 kmh NW 5.5 mph8.9 kmh 30.00 in1015.9 mb 0.00 in0.0 mm 0.00 in/hr0.0 mm/hr 0.00 in0.0 mm
05:47 PM 77.2°F25.1°C 67.6°F19.8°C 72% 2.8 mph NW4.5 kmh NW 4.9 mph7.9 kmh 30.00 in1015.9 mb 0.00 in0.0 mm 0.00 in/hr0.0 mm/hr 0.00 in0.0 mm
05:42 PM 77.2°F25.1°C 67.6°F19.8°C 72% Calm Calm 6.2 mph10.0 kmh 30.00 in1015.9 mb 0.00 in0.0 mm 0.00 in/hr0.0 mm/hr 0.00 in0.0 mm
05:37 PM 77.2°F25.1°C 67.6°F19.8°C 72% Calm Calm 8.0 mph12.9 kmh 30.00 in1015.9 mb 0.00 in0.0 mm 0.00 in/hr0.0 mm/hr 0.00 in0.0 mm
05:32 PM 77.2°F25.1°C 67.1°F19.5°C 71% 4.4 mph WNW7.1 kmh WNW 8.0 mph12.9 kmh 30.00 in1015.9 mb 0.00 in0.0 mm 0.00 in/hr0.0 mm/hr 0.00 in0.0 mm
05:27 PM 77.2°F25.1°C 68.1°F20.1°C 73% 3.9 mph N6.3 kmh N 7.4 mph11.9 kmh 30.00 in1015.9 mb 0.00 in0.0 mm 0.00 in/hr0.0 mm/hr 0.00 in0.0 mm
05:22 PM 77.2°F25.1°C 67.6°F19.8°C 72% 2.8 mph WNW4.5 kmh WNW 7.4 mph11.9 kmh 30.00 in1015.9 mb 0.00 in0.0 mm 0.00 in/hr0.0 mm/hr 0.00 in0.0 mm
05:16 PM 77.2°F25.1°C 68.0°F20.0°C 73% 2.8 mph W4.5 kmh W 5.5 mph8.9 kmh 30.00 in1015.9 mb 0.00 in0.0 mm 0.00 in/hr0.0 mm/hr 0.00 in0.0 mm
05:11 PM 77.2°F25.1°C 67.6°F19.8°C 72% Calm Calm 4.9 mph7.9 kmh 30.00 in1015.9 mb 0.00 in0.0 mm 0.00 in/hr0.0 mm/hr 0.00 in0.0 mm
05:06 PM 77.0°F25.0°C 67.4°F19.7°C 72% 2.8 mph W4.5 kmh W 5.5 mph8.9 kmh 30.00 in1015.9 mb 0.00 in0.0 mm 0.00 in/hr0.0 mm/hr 0.00 in0.0 mm
05:01 PM 76.8°F24.9°C 67.2°F19.6°C 72% Calm Calm 5.5 mph8.9 kmh 30.00 in1015.9 mb 0.00 in0.0 mm 0.00 in/hr0.0 mm/hr 0.00 in0.0 mm
04:56 PM 76.6°F24.8°C 67.4°F19.7°C 73% Calm Calm 5.5 mph8.9 kmh 30.00 in1015.9 mb 0.00 in0.0 mm 0.00 in/hr0.0 mm/hr 0.00 in0.0 mm
04:51 PM 76.6°F24.8°C 67.4°F19.7°C 73% 2.8 mph WNW4.5 kmh WNW 5.5 mph8.9 kmh 30.00 in1015.9 mb 0.00 in0.0 mm 0.00 in/hr0.0 mm/hr 0.00 in0.0 mm
04:46 PM 76.5°F24.7°C 67.4°F19.7°C 73% Calm Calm 5.5 mph8.9 kmh 30.00 in1015.9 mb 0.00 in0.0 mm 0.00 in/hr0.0 mm/hr 0.00 in0.0 mm
04:41 PM 76.5°F24.7°C 66.9°F19.4°C 72% 2.9 mph WNW4.7 kmh WNW 5.5 mph8.9 kmh 30.00 in1015.9 mb 0.00 in0.0 mm 0.00 in/hr0.0 mm/hr 0.00 in0.0 mm
04:36 PM 76.6°F24.8°C 67.5°F19.7°C 73% 3.9 mph WSW6.3 kmh WSW 8.0 mph12.9 kmh 30.00 in1015.9 mb 0.00 in0.0 mm 0.00 in/hr0.0 mm/hr 0.00 in0.0 mm
04:31 PM 76.6°F24.8°C 67.5°F19.7°C 73% 3.7 mph W6.0 kmh W 8.0 mph12.9 kmh 30.00 in1015.9 mb 0.00 in0.0 mm 0.00 in/hr0.0 mm/hr 0.00 in0.0 mm
04:25 PM 76.6°F24.8°C 67.9°F19.9°C 74% Calm Calm 4.3 mph6.9 kmh 30.00 in1015.9 mb 0.00 in0.0 mm 0.00 in/hr0.0 mm/hr 0.00 in0.0 mm
04:20 PM 76.6°F24.8°C 67.9°F19.9°C 74% Calm Calm 3.7 mph6.0 kmh 30.00 in1015.9 mb 0.00 in0.0 mm 0.00 in/hr0.0 mm/hr 0.00 in0.0 mm
04:15 PM 76.6°F24.8°C 68.0°F20.0°C 74% Calm Calm 3.7 mph6.0 kmh 30.00 in1015.9 mb 0.00 in0.0 mm 0.00 in/hr0.0 mm/hr 0.00 in0.0 mm
04:10 PM 76.6°F24.8°C 68.4°F20.2°C 75% Calm Calm 3.7 mph6.0 kmh 30.00 in1015.9 mb 0.00 in0.0 mm 0.00 in/hr0.0 mm/hr 0.00 in0.0 mm
04:05 PM 76.6°F24.8°C 68.0°F20.0°C 74% 2.8 mph WSW4.5 kmh WSW 3.7 mph6.0 kmh 30.00 in1015.9 mb 0.00 in0.0 mm 0.00 in/hr0.0 mm/hr 0.00 in0.0 mm
04:00 PM 76.6°F24.8°C 68.0°F20.0°C 74% Calm Calm 3.7 mph6.0 kmh 30.00 in1015.9 mb 0.00 in0.0 mm 0.00 in/hr0.0 mm/hr 0.00 in0.0 mm
03:54 PM 76.6°F24.8°C 68.4°F20.2°C 76% Calm Calm 3.7 mph6.0 kmh 30.00 in1015.9 mb 0.00 in0.0 mm 0.00 in/hr0.0 mm/hr 0.00 in0.0 mm
03:50 PM 76.8°F24.9°C 69.1°F20.6°C 77% Calm Calm 3.7 mph6.0 kmh 30.00 in1015.9 mb 0.00 in0.0 mm 0.00 in/hr0.0 mm/hr 0.00 in0.0 mm
03:44 PM 76.8°F24.9°C 69.1°F20.6°C 77% Calm Calm 7.4 mph11.9 kmh 30.00 in1015.9 mb 0.00 in0.0 mm 0.00 in/hr0.0 mm/hr 0.00 in0.0 mm
03:39 PM 76.8°F24.9°C 69.1°F20.6°C 77% 2.8 mph SE4.5 kmh SE 7.4 mph11.9 kmh 30.03 in1016.9 mb 0.00 in0.0 mm 0.00 in/hr0.0 mm/hr 0.00 in0.0 mm
03:34 PM 76.6°F24.8°C 68.9°F20.5°C 77% 2.8 mph SSW4.5 kmh SSW 7.4 mph11.9 kmh 30.03 in1016.9 mb 0.00 in0.0 mm 0.00 in/hr0.0 mm/hr 0.00 in0.0 mm
03:29 PM 76.6°F24.8°C 68.9°F20.5°C 77% 3.3 mph S5.3 kmh S 7.4 mph11.9 kmh 30.03 in1016.9 mb 0.00 in0.0 mm 0.00 in/hr0.0 mm/hr 0.00 in0.0 mm
03:23 PM 76.5°F24.7°C 68.8°F20.4°C 77% 2.8 mph SSW4.5 kmh SSW 5.5 mph8.9 kmh 30.03 in1016.9 mb 0.00 in0.0 mm 0.00 in/hr0.0 mm/hr 0.00 in0.0 mm
03:19 PM 76.5°F24.7°C 68.4°F20.2°C 76% Calm Calm 5.5 mph8.9 kmh 30.03 in1016.9 mb 0.00 in0.0 mm 0.00 in/hr0.0 mm/hr 0.00 in0.0 mm
03:14 PM 76.5°F24.7°C 68.4°F20.2°C 76% 2.8 mph SSE4.5 kmh SSE 5.5 mph8.9 kmh 30.03 in1016.9 mb 0.00 in0.0 mm 0.00 in/hr0.0 mm/hr 0.00 in0.0 mm
03:09 PM 76.8°F24.9°C 69.1°F20.6°C 77% Calm Calm 4.3 mph6.9 kmh 30.03 in1016.9 mb 0.00 in0.0 mm 0.00 in/hr0.0 mm/hr 0.00 in0.0 mm
03:03 PM 77.0°F25.0°C 68.9°F20.5°C 76% Calm Calm 3.0 mph4.8 kmh 30.03 in1016.9 mb 0.00 in0.0 mm 0.00 in/hr0.0 mm/hr 0.00 in0.0 mm
02:58 PM 77.2°F25.1°C 69.1°F20.6°C 76% Calm Calm 3.7 mph6.0 kmh 30.03 in1016.9 mb 0.00 in0.0 mm 0.00 in/hr0.0 mm/hr 0.00 in0.0 mm
02:52 PM 77.7°F25.4°C 69.6°F20.9°C 76% Calm Calm 4.9 mph7.9 kmh 30.03 in1016.9 mb 0.00 in0.0 mm 0.00 in/hr0.0 mm/hr 0.00 in0.0 mm
02:47 PM 77.5°F25.3°C 70.3°F21.3°C 78% Calm Calm 6.7 mph10.8 kmh 30.03 in1016.9 mb 0.00 in0.0 mm 0.00 in/hr0.0 mm/hr 0.00 in0.0 mm
02:42 PM 77.0°F25.0°C 69.4°F20.8°C 77% 2.8 mph NNW4.5 kmh NNW 6.7 mph10.8 kmh 30.03 in1016.9 mb 0.00 in0.0 mm 0.00 in/hr0.0 mm/hr 0.00 in0.0 mm
02:37 PM 76.8°F24.9°C 69.2°F20.7°C 77% Calm Calm 7.4 mph11.9 kmh 30.03 in1016.9 mb 0.00 in0.0 mm 0.00 in/hr0.0 mm/hr 0.00 in0.0 mm
02:31 PM 77.2°F25.1°C 69.6°F20.9°C 77% 4.5 mph W7.2 kmh W 7.4 mph11.9 kmh 30.03 in1016.9 mb 0.00 in0.0 mm 0.00 in/hr0.0 mm/hr 0.00 in0.0 mm
02:26 PM 77.4°F25.2°C 69.8°F21.0°C 77% 2.8 mph SW4.5 kmh SW 7.4 mph11.9 kmh 30.03 in1016.9 mb 0.00 in0.0 mm 0.00 in/hr0.0 mm/hr 0.00 in0.0 mm
02:21 PM 77.4°F25.2°C 71.1°F21.7°C 81% 4.3 mph S6.9 kmh S 7.4 mph11.9 kmh 30.03 in1016.9 mb 0.00 in0.0 mm 0.00 in/hr0.0 mm/hr 0.00 in0.0 mm
02:16 PM 76.8°F24.9°C 70.1°F21.2°C 80% 2.8 mph N4.5 kmh N 5.5 mph8.9 kmh 30.03 in1016.9 mb 0.00 in0.0 mm 0.00 in/hr0.0 mm/hr 0.00 in0.0 mm
02:10 PM 76.5°F24.7°C 68.9°F20.5°C 77% 3.9 mph W6.3 kmh W 8.7 mph14.0 kmh 30.03 in1016.9 mb 0.00 in0.0 mm 0.00 in/hr0.0 mm/hr 0.00 in0.0 mm
02:05 PM 76.3°F24.6°C 69.2°F20.7°C 78% 5.4 mph SSW8.7 kmh SSW 8.7 mph14.0 kmh 30.03 in1016.9 mb 0.00 in0.0 mm 0.00 in/hr0.0 mm/hr 0.00 in0.0 mm
02:00 PM 75.7°F24.3°C 69.4°F20.8°C 81% Calm Calm 6.7 mph10.8 kmh 30.03 in1016.9 mb 0.00 in0.0 mm 0.00 in/hr0.0 mm/hr 0.00 in0.0 mm
01:55 PM 75.4°F24.1°C 69.6°F20.9°C 82% 3.1 mph S5.0 kmh S 6.7 mph10.8 kmh 30.03 in1016.9 mb 0.00 in0.0 mm 0.00 in/hr0.0 mm/hr 0.00 in0.0 mm
01:48 PM 75.0°F23.9°C 69.2°F20.7°C 82% 4.5 mph S7.2 kmh S 7.4 mph11.9 kmh 30.03 in1016.9 mb 0.00 in0.0 mm 0.00 in/hr0.0 mm/hr 0.00 in0.0 mm
01:44 PM 74.8°F23.8°C 69.0°F20.6°C 82% 3.7 mph WSW6.0 kmh WSW 7.4 mph11.9 kmh 30.03 in1016.9 mb 0.00 in0.0 mm 0.00 in/hr0.0 mm/hr 0.00 in0.0 mm
01:38 PM 75.2°F24.0°C 69.4°F20.8°C 82% Calm Calm 7.4 mph11.9 kmh 30.03 in1016.9 mb 0.00 in0.0 mm 0.00 in/hr0.0 mm/hr 0.00 in0.0 mm
01:33 PM 75.2°F24.0°C 69.4°F20.8°C 82% 3.0 mph SSW4.8 kmh SSW 7.4 mph11.9 kmh 30.03 in1016.9 mb 0.00 in0.0 mm 0.00 in/hr0.0 mm/hr 0.00 in0.0 mm
01:28 PM 75.2°F24.0°C 70.2°F21.2°C 84% 3.6 mph SE5.8 kmh SE 7.4 mph11.9 kmh 30.03 in1016.9 mb 0.00 in0.0 mm 0.00 in/hr0.0 mm/hr 0.00 in0.0 mm
01:23 PM 74.8°F23.8°C 69.4°F20.8°C 83% Calm Calm 6.7 mph10.8 kmh 30.03 in1016.9 mb 0.00 in0.0 mm 0.00 in/hr0.0 mm/hr 0.00 in0.0 mm
01:17 PM 74.5°F23.6°C 69.5°F20.8°C 84% 3.3 mph SSE5.3 kmh SSE 6.7 mph10.8 kmh 30.03 in1016.9 mb 0.00 in0.0 mm 0.00 in/hr0.0 mm/hr 0.00 in0.0 mm
01:13 PM 73.9°F23.3°C 68.5°F20.3°C 83% 3.8 mph SE6.1 kmh SE 8.7 mph14.0 kmh 30.03 in1016.9 mb 0.00 in0.0 mm 0.00 in/hr0.0 mm/hr 0.00 in0.0 mm
01:06 PM 73.9°F23.3°C 68.1°F20.1°C 82% 3.4 mph SW5.5 kmh SW 8.7 mph14.0 kmh 30.03 in1016.9 mb 0.00 in0.0 mm 0.00 in/hr0.0 mm/hr 0.00 in0.0 mm
01:01 PM 74.3°F23.5°C 68.9°F20.5°C 83% Calm Calm 8.0 mph12.9 kmh 30.03 in1016.9 mb 0.00 in0.0 mm 0.00 in/hr0.0 mm/hr 0.00 in0.0 mm
12:56 PM 74.8°F23.8°C 71.7°F22.1°C 90% 3.1 mph E5.0 kmh E 8.0 mph12.9 kmh 30.03 in1016.9 mb 0.00 in0.0 mm 0.00 in/hr0.0 mm/hr 0.00 in0.0 mm
12:51 PM 74.5°F23.6°C 71.4°F21.9°C 90% 3.9 mph SSE6.3 kmh SSE 8.0 mph12.9 kmh 30.03 in1016.9 mb 0.00 in0.0 mm 0.00 in/hr0.0 mm/hr 0.00 in0.0 mm
12:46 PM 74.1°F23.4°C 70.3°F21.3°C 88% Calm Calm 4.9 mph7.9 kmh 30.03 in1016.9 mb 0.00 in0.0 mm 0.00 in/hr0.0 mm/hr 0.00 in0.0 mm
12:41 PM 73.9°F23.3°C 70.1°F21.2°C 88% Calm Calm 4.9 mph7.9 kmh 30.03 in1016.9 mb 0.00 in0.0 mm 0.00 in/hr0.0 mm/hr 0.00 in0.0 mm
12:36 PM 73.9°F23.3°C 71.6°F22.0°C 93% 2.8 mph SSW4.5 kmh SSW 4.9 mph7.9 kmh 30.03 in1016.9 mb 0.00 in0.0 mm 0.00 in/hr0.0 mm/hr 0.00 in0.0 mm
12:31 PM 73.6°F23.1°C 70.9°F21.6°C 91% 2.8 mph SSW4.5 kmh SSW 4.9 mph7.9 kmh 30.03 in1016.9 mb 0.00 in0.0 mm 0.00 in/hr0.0 mm/hr 0.00 in0.0 mm
12:26 PM 73.4°F23.0°C 71.8°F22.1°C 95% Calm Calm 3.7 mph6.0 kmh 30.06 in1017.9 mb 0.00 in0.0 mm 0.00 in/hr0.0 mm/hr 0.00 in0.0 mm
12:21 PM 72.9°F22.7°C 71.7°F22.1°C 96% Calm Calm 5.5 mph8.9 kmh 30.06 in1017.9 mb 0.00 in0.0 mm 0.00 in/hr0.0 mm/hr 0.00 in0.0 mm
12:15 PM 72.9°F22.7°C 72.8°F22.7°C 100% Calm Calm 5.5 mph8.9 kmh 30.06 in1017.9 mb 0.00 in0.0 mm 0.00 in/hr0.0 mm/hr 0.00 in0.0 mm
12:10 PM 72.9°F22.7°C 72.8°F22.7°C 100% Calm Calm 5.5 mph8.9 kmh 30.06 in1017.9 mb 0.00 in0.0 mm 0.00 in/hr0.0 mm/hr 0.00 in0.0 mm
12:05 PM 72.3°F22.4°C 72.3°F22.4°C 100% 3.4 mph ESE5.5 kmh ESE 5.5 mph8.9 kmh 30.06 in1017.9 mb 0.00 in0.0 mm 0.00 in/hr0.0 mm/hr 0.00 in0.0 mm
12:00 PM 71.6°F22.0°C 71.5°F21.9°C 100% Calm Calm 4.9 mph7.9 kmh 30.06 in1017.9 mb 0.00 in0.0 mm 0.00 in/hr0.0 mm/hr 0.00 in0.0 mm
11:55 AM 71.4°F21.9°C 71.4°F21.9°C 100% Calm Calm 5.5 mph8.9 kmh 30.06 in1017.9 mb 0.00 in0.0 mm 0.00 in/hr0.0 mm/hr 0.00 in0.0 mm
11:50 AM 71.4°F21.9°C 71.4°F21.9°C 100% 2.8 mph N4.5 kmh N 5.5 mph8.9 kmh 30.06 in1017.9 mb 0.00 in0.0 mm 0.00 in/hr0.0 mm/hr 0.00 in0.0 mm
11:45 AM 70.7°F21.5°C 70.7°F21.5°C 100% Calm Calm -- 30.06 in1017.9 mb 0.00 in0.0 mm 0.00 in/hr0.0 mm/hr 0.00 in0.0 mm
11:40 AM 70.3°F21.3°C 70.3°F21.3°C 100% Calm Calm 4.9 mph7.9 kmh 30.06 in1017.9 mb 0.00 in0.0 mm 0.00 in/hr0.0 mm/hr 0.00 in0.0 mm
11:35 AM 70.5°F21.4°C 70.5°F21.4°C 100% 3.4 mph NNE5.5 kmh NNE 5.5 mph8.9 kmh 30.06 in1017.9 mb 0.00 in0.0 mm 0.00 in/hr0.0 mm/hr 0.00 in0.0 mm
11:30 AM 70.5°F21.4°C 70.5°F21.4°C 100% Calm Calm 6.7 mph10.8 kmh 30.06 in1017.9 mb 0.00 in0.0 mm 0.00 in/hr0.0 mm/hr 0.00 in0.0 mm
11:25 AM 70.2°F21.2°C 70.2°F21.2°C 100% 3.9 mph S6.3 kmh S 6.7 mph10.8 kmh 30.06 in1017.9 mb 0.00 in0.0 mm 0.00 in/hr0.0 mm/hr 0.00 in0.0 mm
11:20 AM 69.8°F21.0°C 69.8°F21.0°C 100% Calm Calm 5.5 mph8.9 kmh 30.06 in1017.9 mb 0.00 in0.0 mm 0.00 in/hr0.0 mm/hr 0.00 in0.0 mm
11:15 AM 70.2°F21.2°C 70.2°F21.2°C 100% 5.0 mph NNE8.0 kmh NNE 7.4 mph11.9 kmh 30.06 in1017.9 mb 0.00 in0.0 mm 0.00 in/hr0.0 mm/hr 0.00 in0.0 mm
11:10 AM 70.2°F21.2°C 70.2°F21.2°C 100% 3.2 mph NNE5.1 kmh NNE 7.4 mph11.9 kmh 30.06 in1017.9 mb 0.00 in0.0 mm 0.00 in/hr0.0 mm/hr 0.00 in0.0 mm
11:05 AM 70.0°F21.1°C 70.0°F21.1°C 100% 3.1 mph ESE5.0 kmh ESE 8.0 mph12.9 kmh 30.06 in1017.9 mb 0.00 in0.0 mm 0.00 in/hr0.0 mm/hr 0.00 in0.0 mm
11:00 AM 69.6°F20.9°C 69.6°F20.9°C 100% 4.8 mph ESE7.7 kmh ESE 8.0 mph12.9 kmh 30.06 in1017.9 mb 0.00 in0.0 mm 0.00 in/hr0.0 mm/hr 0.00 in0.0 mm
10:55 AM 69.4°F20.8°C 69.4°F20.8°C 100% Calm Calm 7.4 mph11.9 kmh 30.06 in1017.9 mb 0.00 in0.0 mm 0.00 in/hr0.0 mm/hr 0.00 in0.0 mm
10:50 AM 69.1°F20.6°C 69.1°F20.6°C 100% 3.6 mph E5.8 kmh E 7.4 mph11.9 kmh 30.06 in1017.9 mb 0.00 in0.0 mm 0.00 in/hr0.0 mm/hr 0.00 in0.0 mm
10:45 AM 68.0°F20.0°C 68.0°F20.0°C 100% 2.8 mph NE4.5 kmh NE 6.7 mph10.8 kmh 30.06 in1017.9 mb 0.00 in0.0 mm 0.00 in/hr0.0 mm/hr 0.00 in0.0 mm
10:40 AM 67.1°F19.5°C 67.1°F19.5°C 100% 2.8 mph ENE4.5 kmh ENE 6.2 mph10.0 kmh 30.06 in1017.9 mb 0.00 in0.0 mm 0.00 in/hr0.0 mm/hr 0.00 in0.0 mm
10:34 AM 66.6°F19.2°C 66.6°F19.2°C 100% Calm Calm 4.9 mph7.9 kmh 30.06 in1017.9 mb 0.00 in0.0 mm 0.00 in/hr0.0 mm/hr 0.00 in0.0 mm
10:29 AM 66.2°F19.0°C 66.2°F19.0°C 100% Calm Calm 4.3 mph6.9 kmh 30.06 in1017.9 mb 0.00 in0.0 mm 0.00 in/hr0.0 mm/hr 0.00 in0.0 mm
10:24 AM 66.0°F18.9°C 66.0°F18.9°C 100% 3.4 mph E5.5 kmh E 4.9 mph7.9 kmh 30.06 in1017.9 mb 0.00 in0.0 mm 0.00 in/hr0.0 mm/hr 0.00 in0.0 mm
10:19 AM 65.8°F18.8°C 65.8°F18.8°C 100% Calm Calm 4.9 mph7.9 kmh 30.06 in1017.9 mb 0.00 in0.0 mm 0.00 in/hr0.0 mm/hr 0.00 in0.0 mm
10:14 AM 65.8°F18.8°C 65.8°F18.8°C 100% Calm Calm 5.5 mph8.9 kmh 30.06 in1017.9 mb 0.00 in0.0 mm 0.00 in/hr0.0 mm/hr 0.00 in0.0 mm
10:09 AM 65.8°F18.8°C 65.8°F18.8°C 100% Calm Calm 5.5 mph8.9 kmh 30.06 in1017.9 mb 0.00 in0.0 mm 0.00 in/hr0.0 mm/hr 0.00 in0.0 mm
10:04 AM 65.7°F18.7°C 65.7°F18.7°C 100% Calm Calm 4.9 mph7.9 kmh 30.06 in1017.9 mb 0.00 in0.0 mm 0.00 in/hr0.0 mm/hr 0.00 in0.0 mm
09:59 AM 65.1°F18.4°C 65.1°F18.4°C 100% 3.4 mph E5.5 kmh E 6.7 mph10.8 kmh 30.06 in1017.9 mb 0.00 in0.0 mm 0.00 in/hr0.0 mm/hr 0.00 in0.0 mm
09:54 AM 64.8°F18.2°C 64.8°F18.2°C 100% 2.8 mph E4.5 kmh E 7.4 mph11.9 kmh 30.03 in1016.9 mb 0.00 in0.0 mm 0.00 in/hr0.0 mm/hr 0.00 in0.0 mm
09:49 AM 64.4°F18.0°C 64.4°F18.0°C 100% 3.9 mph E6.3 kmh E 7.4 mph11.9 kmh 30.03 in1016.9 mb 0.00 in0.0 mm 0.00 in/hr0.0 mm/hr 0.00 in0.0 mm
09:43 AM 64.2°F17.9°C 64.2°F17.9°C 100% 3.9 mph ESE6.3 kmh ESE 5.5 mph8.9 kmh 30.03 in1016.9 mb 0.00 in0.0 mm 0.00 in/hr0.0 mm/hr 0.00 in0.0 mm
09:39 AM 64.2°F17.9°C 64.2°F17.9°C 100% 2.8 mph NE4.5 kmh NE 4.9 mph7.9 kmh 30.03 in1016.9 mb 0.00 in0.0 mm 0.00 in/hr0.0 mm/hr 0.00 in0.0 mm
09:34 AM 64.0°F17.8°C 64.0°F17.8°C 100% Calm Calm 6.7 mph10.8 kmh 30.03 in1016.9 mb 0.00 in0.0 mm 0.00 in/hr0.0 mm/hr 0.00 in0.0 mm
09:29 AM 63.9°F17.7°C 63.9°F17.7°C 100% Calm Calm 6.7 mph10.8 kmh 30.03 in1016.9 mb 0.00 in0.0 mm 0.00 in/hr0.0 mm/hr 0.00 in0.0 mm
09:23 AM 63.7°F17.6°C 63.7°F17.6°C 100% 3.3 mph NNE5.3 kmh NNE 5.5 mph8.9 kmh 30.03 in1016.9 mb 0.00 in0.0 mm 0.00 in/hr0.0 mm/hr 0.00 in0.0 mm
09:19 AM 63.5°F17.5°C 63.5°F17.5°C 100% 2.8 mph NE4.5 kmh NE 4.9 mph7.9 kmh 30.03 in1016.9 mb 0.00 in0.0 mm 0.00 in/hr0.0 mm/hr 0.00 in0.0 mm
09:13 AM 63.5°F17.5°C 63.5°F17.5°C 100% Calm Calm 5.5 mph8.9 kmh 30.03 in1016.9 mb 0.00 in0.0 mm 0.00 in/hr0.0 mm/hr 0.00 in0.0 mm
09:09 AM 63.3°F17.4°C 63.3°F17.4°C 100% Calm Calm 5.5 mph8.9 kmh 30.03 in1016.9 mb 0.00 in0.0 mm 0.00 in/hr0.0 mm/hr 0.00 in0.0 mm
09:02 AM 63.1°F17.3°C 63.1°F17.3°C 100% Calm Calm 5.5 mph8.9 kmh 30.03 in1016.9 mb 0.00 in0.0 mm 0.00 in/hr0.0 mm/hr 0.00 in0.0 mm
08:57 AM 63.1°F17.3°C 63.1°F17.3°C 100% Calm Calm 5.5 mph8.9 kmh 30.03 in1016.9 mb 0.00 in0.0 mm 0.00 in/hr0.0 mm/hr 0.00 in0.0 mm
08:51 AM 63.1°F17.3°C 63.1°F17.3°C 100% Calm Calm 5.5 mph8.9 kmh 30.03 in1016.9 mb 0.00 in0.0 mm 0.00 in/hr0.0 mm/hr 0.00 in0.0 mm
08:46 AM 63.1°F17.3°C 63.1°F17.3°C 100% Calm Calm 6.7 mph10.8 kmh 30.03 in1016.9 mb 0.00 in0.0 mm 0.00 in/hr0.0 mm/hr 0.00 in0.0 mm
08:41 AM 63.0°F17.2°C 63.0°F17.2°C 100% 2.8 mph ENE4.5 kmh ENE 6.7 mph10.8 kmh 30.03 in1016.9 mb 0.00 in0.0 mm 0.00 in/hr0.0 mm/hr 0.00 in0.0 mm
08:36 AM 63.0°F17.2°C 63.0°F17.2°C 100% 3.4 mph NE5.5 kmh NE 5.5 mph8.9 kmh 30.03 in1016.9 mb 0.00 in0.0 mm 0.00 in/hr0.0 mm/hr 0.00 in0.0 mm
08:31 AM 63.0°F17.2°C 63.0°F17.2°C 100% 3.0 mph NE4.8 kmh NE 5.5 mph8.9 kmh 30.03 in1016.9 mb 0.00 in0.0 mm 0.00 in/hr0.0 mm/hr 0.00 in0.0 mm
08:26 AM 63.0°F17.2°C 63.0°F17.2°C 100% Calm Calm 5.5 mph8.9 kmh 30.03 in1016.9 mb 0.00 in0.0 mm 0.00 in/hr0.0 mm/hr 0.00 in0.0 mm
08:20 AM 62.8°F17.1°C 62.8°F17.1°C 100% Calm Calm 5.5 mph8.9 kmh 30.03 in1016.9 mb 0.00 in0.0 mm 0.00 in/hr0.0 mm/hr 0.00 in0.0 mm
08:15 AM 62.6°F17.0°C 62.6°F17.0°C 100% Calm Calm 3.0 mph4.8 kmh 30.03 in1016.9 mb 0.00 in0.0 mm 0.00 in/hr0.0 mm/hr 0.00 in0.0 mm
08:10 AM 62.6°F17.0°C 62.4°F16.9°C 99% Calm Calm 3.0 mph4.8 kmh 30.03 in1016.9 mb 0.00 in0.0 mm 0.00 in/hr0.0 mm/hr 0.00 in0.0 mm
08:05 AM 62.2°F16.8°C 62.2°F16.8°C 100% Calm Calm -- 30.03 in1016.9 mb 0.00 in0.0 mm 0.00 in/hr0.0 mm/hr 0.00 in0.0 mm
08:00 AM 62.1°F16.7°C 62.1°F16.7°C 100% Calm Calm -- 30.03 in1016.9 mb 0.00 in0.0 mm 0.00 in/hr0.0 mm/hr 0.00 in0.0 mm
07:55 AM 61.7°F16.5°C 61.4°F16.3°C 99% Calm Calm -- 30.03 in1016.9 mb 0.00 in0.0 mm 0.00 in/hr0.0 mm/hr 0.00 in0.0 mm
07:49 AM 61.3°F16.3°C 61.0°F16.1°C 99% Calm Calm -- 30.03 in1016.9 mb 0.00 in0.0 mm 0.00 in/hr0.0 mm/hr 0.00 in0.0 mm
07:44 AM 61.0°F16.1°C 60.7°F15.9°C 99% Calm Calm -- 30.03 in1016.9 mb 0.00 in0.0 mm 0.00 in/hr0.0 mm/hr 0.00 in0.0 mm
07:39 AM 60.6°F15.9°C 60.3°F15.7°C 99% Calm Calm -- 30.03 in1016.9 mb 0.00 in0.0 mm 0.00 in/hr0.0 mm/hr 0.00 in0.0 mm
07:34 AM 60.1°F15.6°C 59.8°F15.4°C 99% Calm Calm -- 30.03 in1016.9 mb 0.00 in0.0 mm 0.00 in/hr0.0 mm/hr 0.00 in0.0 mm
07:29 AM 59.9°F15.5°C 59.6°F15.3°C 99% Calm Calm -- 30.03 in1016.9 mb 0.00 in0.0 mm 0.00 in/hr0.0 mm/hr 0.00 in0.0 mm
07:24 AM 59.7°F15.4°C 59.4°F15.2°C 99% Calm Calm -- 30.03 in1016.9 mb 0.00 in0.0 mm 0.00 in/hr0.0 mm/hr 0.00 in0.0 mm
07:18 AM 59.5°F15.3°C 58.8°F14.9°C 98% Calm Calm -- 30.03 in1016.9 mb 0.00 in0.0 mm 0.00 in/hr0.0 mm/hr 0.00 in0.0 mm
07:13 AM 59.5°F15.3°C 58.8°F14.9°C 98% Calm Calm -- 30.03 in1016.9 mb 0.00 in0.0 mm 0.00 in/hr0.0 mm/hr 0.00 in0.0 mm
07:06 AM 59.7°F15.4°C 59.0°F15.0°C 98% Calm Calm -- 30.03 in1016.9 mb 0.00 in0.0 mm 0.00 in/hr0.0 mm/hr 0.00 in0.0 mm
07:01 AM 59.7°F15.4°C 59.0°F15.0°C 98% Calm Calm -- 30.03 in1016.9 mb 0.00 in0.0 mm 0.00 in/hr0.0 mm/hr 0.00 in0.0 mm
06:55 AM 59.7°F15.4°C 59.0°F15.0°C 98% Calm Calm -- 30.00 in1015.9 mb 0.00 in0.0 mm 0.00 in/hr0.0 mm/hr 0.00 in0.0 mm
06:50 AM 59.7°F15.4°C 59.0°F15.0°C 98% Calm Calm -- 30.00 in1015.9 mb 0.00 in0.0 mm 0.00 in/hr0.0 mm/hr 0.00 in0.0 mm
06:44 AM 59.7°F15.4°C 59.0°F15.0°C 98% Calm Calm -- 30.00 in1015.9 mb 0.00 in0.0 mm 0.00 in/hr0.0 mm/hr 0.00 in0.0 mm
06:39 AM 59.9°F15.5°C 59.2°F15.1°C 98% Calm Calm -- 30.00 in1015.9 mb 0.00 in0.0 mm 0.00 in/hr0.0 mm/hr 0.00 in0.0 mm
06:34 AM 59.9°F15.5°C 59.2°F15.1°C 98% Calm Calm -- 30.00 in1015.9 mb 0.00 in0.0 mm 0.00 in/hr0.0 mm/hr 0.00 in0.0 mm
06:29 AM 60.1°F15.6°C 59.4°F15.2°C 98% Calm Calm -- 30.00 in1015.9 mb 0.00 in0.0 mm 0.00 in/hr0.0 mm/hr 0.00 in0.0 mm
06:24 AM 60.3°F15.7°C 59.6°F15.3°C 98% Calm Calm -- 30.00 in1015.9 mb 0.00 in0.0 mm 0.00 in/hr0.0 mm/hr 0.00 in0.0 mm
06:19 AM 60.4°F15.8°C 59.7°F15.4°C 98% Calm Calm -- 30.00 in1015.9 mb 0.00 in0.0 mm 0.00 in/hr0.0 mm/hr 0.00 in0.0 mm
06:13 AM 60.6°F15.9°C 59.9°F15.5°C 98% Calm Calm -- 30.00 in1015.9 mb 0.00 in0.0 mm 0.00 in/hr0.0 mm/hr 0.00 in0.0 mm
06:08 AM 60.6°F15.9°C 59.9°F15.5°C 98% Calm Calm -- 30.00 in1015.9 mb 0.00 in0.0 mm 0.00 in/hr0.0 mm/hr 0.00 in0.0 mm
06:02 AM 60.8°F16.0°C 60.1°F15.6°C 98% Calm Calm -- 30.00 in1015.9 mb 0.00 in0.0 mm 0.00 in/hr0.0 mm/hr 0.00 in0.0 mm
05:58 AM 60.8°F16.0°C 60.1°F15.6°C 98% Calm Calm -- 30.00 in1015.9 mb 0.00 in0.0 mm 0.00 in/hr0.0 mm/hr 0.00 in0.0 mm
05:51 AM 60.8°F16.0°C 60.1°F15.6°C 98% Calm Calm -- 30.00 in1015.9 mb 0.00 in0.0 mm 0.00 in/hr0.0 mm/hr 0.00 in0.0 mm
05:46 AM 61.0°F16.1°C 60.3°F15.7°C 98% Calm Calm -- 30.00 in1015.9 mb 0.00 in0.0 mm 0.00 in/hr0.0 mm/hr 0.00 in0.0 mm
05:41 AM 61.0°F16.1°C 60.3°F15.7°C 98% Calm Calm -- 30.00 in1015.9 mb 0.00 in0.0 mm 0.00 in/hr0.0 mm/hr 0.00 in0.0 mm
05:36 AM 61.2°F16.2°C 60.6°F15.9°C 98% Calm Calm -- 30.00 in1015.9 mb 0.00 in0.0 mm 0.00 in/hr0.0 mm/hr 0.00 in0.0 mm
05:31 AM 61.2°F16.2°C 60.2°F15.7°C 97% Calm Calm -- 30.00 in1015.9 mb 0.00 in0.0 mm 0.00 in/hr0.0 mm/hr 0.00 in0.0 mm
05:26 AM 61.3°F16.3°C 60.7°F15.9°C 98% Calm Calm -- 30.00 in1015.9 mb 0.00 in0.0 mm 0.00 in/hr0.0 mm/hr 0.00 in0.0 mm
05:21 AM 61.7°F16.5°C 61.1°F16.2°C 98% Calm Calm -- 30.00 in1015.9 mb 0.00 in0.0 mm 0.00 in/hr0.0 mm/hr 0.00 in0.0 mm
05:16 AM 61.9°F16.6°C 61.3°F16.3°C 98% Calm Calm 3.7 mph6.0 kmh 30.00 in1015.9 mb 0.00 in0.0 mm 0.00 in/hr0.0 mm/hr 0.00 in0.0 mm
05:11 AM 61.9°F16.6°C 61.3°F16.3°C 98% Calm Calm 3.7 mph6.0 kmh 30.00 in1015.9 mb 0.00 in0.0 mm 0.00 in/hr0.0 mm/hr 0.00 in0.0 mm
05:06 AM 62.1°F16.7°C 61.5°F16.4°C 98% Calm Calm 3.0 mph4.8 kmh 30.00 in1015.9 mb 0.00 in0.0 mm 0.00 in/hr0.0 mm/hr 0.00 in0.0 mm
05:00 AM 61.9°F16.6°C 61.3°F16.3°C 98% Calm Calm 4.3 mph6.9 kmh 30.00 in1015.9 mb 0.00 in0.0 mm 0.00 in/hr0.0 mm/hr 0.00 in0.0 mm
04:55 AM 61.9°F16.6°C 61.3°F16.3°C 98% Calm Calm 4.3 mph6.9 kmh 30.00 in1015.9 mb 0.00 in0.0 mm 0.00 in/hr0.0 mm/hr 0.00 in0.0 mm
04:50 AM 61.7°F16.5°C 61.1°F16.2°C 98% Calm Calm 3.7 mph6.0 kmh 30.00 in1015.9 mb 0.00 in0.0 mm 0.00 in/hr0.0 mm/hr 0.00 in0.0 mm
04:45 AM 61.7°F16.5°C 60.8°F16.0°C 97% Calm Calm -- 30.00 in1015.9 mb 0.00 in0.0 mm 0.00 in/hr0.0 mm/hr 0.00 in0.0 mm
04:40 AM 61.5°F16.4°C 60.6°F15.9°C 97% Calm Calm -- 30.00 in1015.9 mb 0.00 in0.0 mm 0.00 in/hr0.0 mm/hr 0.00 in0.0 mm
04:35 AM 61.7°F16.5°C 60.8°F16.0°C 97% Calm Calm -- 30.00 in1015.9 mb 0.00 in0.0 mm 0.00 in/hr0.0 mm/hr 0.00 in0.0 mm
04:30 AM 61.7°F16.5°C 60.8°F16.0°C 97% Calm Calm -- 30.00 in1015.9 mb 0.00 in0.0 mm 0.00 in/hr0.0 mm/hr 0.00 in0.0 mm
04:25 AM 61.9°F16.6°C 61.0°F16.1°C 97% Calm Calm -- 30.00 in1015.9 mb 0.00 in0.0 mm 0.00 in/hr0.0 mm/hr 0.00 in0.0 mm
04:19 AM 62.1°F16.7°C 61.2°F16.2°C 97% Calm Calm -- 30.00 in1015.9 mb 0.00 in0.0 mm 0.00 in/hr0.0 mm/hr 0.00 in0.0 mm
04:14 AM 62.2°F16.8°C 61.3°F16.3°C 97% Calm Calm -- 30.00 in1015.9 mb 0.00 in0.0 mm 0.00 in/hr0.0 mm/hr 0.00 in0.0 mm
04:09 AM 62.1°F16.7°C 61.2°F16.2°C 97% Calm Calm -- 30.00 in1015.9 mb 0.00 in0.0 mm 0.00 in/hr0.0 mm/hr 0.00 in0.0 mm
04:04 AM 62.2°F16.8°C 61.3°F16.3°C 97% Calm Calm -- 30.00 in1015.9 mb 0.00 in0.0 mm 0.00 in/hr0.0 mm/hr 0.00 in0.0 mm
03:59 AM 62.4°F16.9°C 61.5°F16.4°C 97% Calm Calm -- 30.00 in1015.9 mb 0.00 in0.0 mm 0.00 in/hr0.0 mm/hr 0.00 in0.0 mm
03:54 AM 62.8°F17.1°C 61.9°F16.6°C 97% Calm Calm -- 30.00 in1015.9 mb 0.00 in0.0 mm 0.00 in/hr0.0 mm/hr 0.00 in0.0 mm
03:49 AM 63.1°F17.3°C 62.3°F16.8°C 97% Calm Calm -- 30.00 in1015.9 mb 0.00 in0.0 mm 0.00 in/hr0.0 mm/hr 0.00 in0.0 mm
03:44 AM 63.1°F17.3°C 62.3°F16.8°C 97% Calm Calm -- 30.00 in1015.9 mb 0.00 in0.0 mm 0.00 in/hr0.0 mm/hr 0.00 in0.0 mm
03:39 AM 63.1°F17.3°C 62.3°F16.8°C 97% Calm Calm -- 30.00 in1015.9 mb 0.00 in0.0 mm 0.00 in/hr0.0 mm/hr 0.00 in0.0 mm
03:34 AM 63.0°F17.2°C 61.8°F16.6°C 96% Calm Calm -- 30.00 in1015.9 mb 0.00 in0.0 mm 0.00 in/hr0.0 mm/hr 0.00 in0.0 mm
03:29 AM 63.3°F17.4°C 62.1°F16.7°C 96% Calm Calm -- 30.00 in1015.9 mb 0.00 in0.0 mm 0.00 in/hr0.0 mm/hr 0.00 in0.0 mm
03:24 AM 63.5°F17.5°C 62.7°F17.1°C 97% Calm Calm 4.3 mph6.9 kmh 30.00 in1015.9 mb 0.00 in0.0 mm 0.00 in/hr0.0 mm/hr 0.00 in0.0 mm
03:19 AM 63.7°F17.6°C 62.9°F17.2°C 97% 2.8 mph WNW4.5 kmh WNW 4.3 mph6.9 kmh 30.00 in1015.9 mb 0.00 in0.0 mm 0.00 in/hr0.0 mm/hr 0.00 in0.0 mm
03:14 AM 63.7°F17.6°C 62.9°F17.2°C 97% 2.8 mph WNW4.5 kmh WNW 5.5 mph8.9 kmh 30.00 in1015.9 mb 0.00 in0.0 mm 0.00 in/hr0.0 mm/hr 0.00 in0.0 mm
03:09 AM 63.9°F17.7°C 62.7°F17.1°C 96% 2.8 mph W4.5 kmh W 5.5 mph8.9 kmh 30.00 in1015.9 mb 0.00 in0.0 mm 0.00 in/hr0.0 mm/hr 0.00 in0.0 mm
03:04 AM 63.9°F17.7°C 62.8°F17.1°C 96% Calm Calm 4.9 mph7.9 kmh 30.00 in1015.9 mb 0.00 in0.0 mm 0.00 in/hr0.0 mm/hr 0.00 in0.0 mm
02:58 AM 63.9°F17.7°C 62.8°F17.1°C 96% 2.8 mph W4.5 kmh W 5.5 mph8.9 kmh 30.00 in1015.9 mb 0.00 in0.0 mm 0.00 in/hr0.0 mm/hr 0.00 in0.0 mm
02:53 AM 64.0°F17.8°C 62.9°F17.2°C 96% 3.3 mph WNW5.3 kmh WNW 5.5 mph8.9 kmh 30.00 in1015.9 mb 0.00 in0.0 mm 0.00 in/hr0.0 mm/hr 0.00 in0.0 mm
02:47 AM 64.0°F17.8°C 62.9°F17.2°C 96% 2.8 mph W4.5 kmh W 5.5 mph8.9 kmh 30.00 in1015.9 mb 0.00 in0.0 mm 0.00 in/hr0.0 mm/hr 0.00 in0.0 mm
02:42 AM 64.0°F17.8°C 62.9°F17.2°C 96% 3.0 mph W4.8 kmh W 5.5 mph8.9 kmh 30.00 in1015.9 mb 0.00 in0.0 mm 0.00 in/hr0.0 mm/hr 0.00 in0.0 mm
02:37 AM 64.0°F17.8°C 62.9°F17.2°C 96% 2.8 mph W4.5 kmh W 5.5 mph8.9 kmh 30.00 in1015.9 mb 0.00 in0.0 mm 0.00 in/hr0.0 mm/hr 0.00 in0.0 mm
02:32 AM 64.0°F17.8°C 62.9°F17.2°C 96% 3.4 mph W5.5 kmh W 4.9 mph7.9 kmh 30.00 in1015.9 mb 0.00 in0.0 mm 0.00 in/hr0.0 mm/hr 0.00 in0.0 mm
02:27 AM 64.0°F17.8°C 62.5°F16.9°C 95% Calm Calm 4.9 mph7.9 kmh 30.00 in1015.9 mb 0.00 in0.0 mm 0.00 in/hr0.0 mm/hr 0.00 in0.0 mm
02:22 AM 64.2°F17.9°C 62.7°F17.1°C 95% Calm Calm 4.9 mph7.9 kmh 30.00 in1015.9 mb 0.00 in0.0 mm 0.00 in/hr0.0 mm/hr 0.00 in0.0 mm
02:17 AM 64.2°F17.9°C 62.7°F17.1°C 95% Calm Calm 4.9 mph7.9 kmh 30.00 in1015.9 mb 0.00 in0.0 mm 0.00 in/hr0.0 mm/hr 0.00 in0.0 mm
02:11 AM 64.2°F17.9°C 62.8°F17.1°C 95% Calm Calm 3.7 mph6.0 kmh 30.00 in1015.9 mb 0.00 in0.0 mm 0.00 in/hr0.0 mm/hr 0.00 in0.0 mm
02:05 AM 64.2°F17.9°C 62.8°F17.1°C 95% Calm Calm 4.9 mph7.9 kmh 30.00 in1015.9 mb 0.00 in0.0 mm 0.00 in/hr0.0 mm/hr 0.00 in0.0 mm
02:00 AM 64.2°F17.9°C 62.8°F17.1°C 95% Calm Calm 3.7 mph6.0 kmh 30.00 in1015.9 mb 0.00 in0.0 mm 0.00 in/hr0.0 mm/hr 0.00 in0.0 mm
01:55 AM 64.4°F18.0°C 62.6°F17.0°C 94% Calm Calm -- 30.00 in1015.9 mb 0.00 in0.0 mm 0.00 in/hr0.0 mm/hr 0.00 in0.0 mm
01:50 AM 64.4°F18.0°C 62.6°F17.0°C 94% Calm Calm -- 30.00 in1015.9 mb 0.00 in0.0 mm 0.00 in/hr0.0 mm/hr 0.00 in0.0 mm
01:45 AM 64.6°F18.1°C 62.8°F17.1°C 94% Calm Calm -- 30.00 in1015.9 mb 0.00 in0.0 mm 0.00 in/hr0.0 mm/hr 0.00 in0.0 mm
01:40 AM 64.8°F18.2°C 63.0°F17.2°C 94% Calm Calm 3.0 mph4.8 kmh 30.00 in1015.9 mb 0.00 in0.0 mm 0.00 in/hr0.0 mm/hr 0.00 in0.0 mm
01:35 AM 64.9°F18.3°C 63.1°F17.3°C 94% Calm Calm 3.7 mph6.0 kmh 30.00 in1015.9 mb 0.00 in0.0 mm 0.00 in/hr0.0 mm/hr 0.00 in0.0 mm
01:30 AM 64.9°F18.3°C 63.1°F17.3°C 94% Calm Calm 3.7 mph6.0 kmh 30.00 in1015.9 mb 0.00 in0.0 mm 0.00 in/hr0.0 mm/hr 0.00 in0.0 mm
01:24 AM 65.1°F18.4°C 63.3°F17.4°C 94% Calm Calm 3.7 mph6.0 kmh 30.00 in1015.9 mb 0.00 in0.0 mm 0.00 in/hr0.0 mm/hr 0.00 in0.0 mm
01:19 AM 64.9°F18.3°C 63.1°F17.3°C 94% Calm Calm 4.3 mph6.9 kmh 30.00 in1015.9 mb 0.00 in0.0 mm 0.00 in/hr0.0 mm/hr 0.00 in0.0 mm
01:14 AM 64.9°F18.3°C 63.1°F17.3°C 94% Calm Calm 4.3 mph6.9 kmh 30.00 in1015.9 mb 0.00 in0.0 mm 0.00 in/hr0.0 mm/hr 0.00 in0.0 mm
01:09 AM 64.9°F18.3°C 62.8°F17.1°C 93% Calm Calm 4.3 mph6.9 kmh 30.00 in1015.9 mb 0.00 in0.0 mm 0.00 in/hr0.0 mm/hr 0.00 in0.0 mm
01:04 AM 65.1°F18.4°C 63.0°F17.2°C 93% Calm Calm 3.0 mph4.8 kmh 30.00 in1015.9 mb 0.00 in0.0 mm 0.00 in/hr0.0 mm/hr 0.00 in0.0 mm
12:59 AM 65.3°F18.5°C 63.2°F17.3°C 93% Calm Calm 5.5 mph8.9 kmh 30.00 in1015.9 mb 0.00 in0.0 mm 0.00 in/hr0.0 mm/hr 0.00 in0.0 mm
12:54 AM 65.5°F18.6°C 63.4°F17.4°C 93% Calm Calm 5.5 mph8.9 kmh 30.00 in1015.9 mb 0.00 in0.0 mm 0.00 in/hr0.0 mm/hr 0.00 in0.0 mm
12:49 AM 65.7°F18.7°C 63.6°F17.6°C 93% Calm Calm 3.0 mph4.8 kmh 30.00 in1015.9 mb 0.00 in0.0 mm 0.00 in/hr0.0 mm/hr 0.00 in0.0 mm
12:44 AM 65.8°F18.8°C 63.7°F17.6°C 93% Calm Calm 3.0 mph4.8 kmh 30.00 in1015.9 mb 0.00 in0.0 mm 0.00 in/hr0.0 mm/hr 0.00 in0.0 mm
12:39 AM 65.8°F18.8°C 63.7°F17.6°C 93% Calm Calm -- 30.00 in1015.9 mb 0.00 in0.0 mm 0.00 in/hr0.0 mm/hr 0.00 in0.0 mm
12:34 AM 66.0°F18.9°C 63.9°F17.7°C 93% Calm Calm -- 30.00 in1015.9 mb 0.00 in0.0 mm 0.00 in/hr0.0 mm/hr 0.00 in0.0 mm
12:29 AM 66.2°F19.0°C 63.7°F17.6°C 92% Calm Calm 3.7 mph6.0 kmh 30.00 in1015.9 mb 0.00 in0.0 mm 0.00 in/hr0.0 mm/hr 0.00 in0.0 mm
12:24 AM 66.4°F19.1°C 63.9°F17.7°C 92% Calm Calm 4.9 mph7.9 kmh 30.00 in1015.9 mb 0.00 in0.0 mm 0.00 in/hr0.0 mm/hr 0.00 in0.0 mm
12:19 AM 66.6°F19.2°C 64.1°F17.8°C 92% 2.8 mph W4.5 kmh W 4.9 mph7.9 kmh 30.00 in1015.9 mb 0.00 in0.0 mm 0.00 in/hr0.0 mm/hr 0.00 in0.0 mm
12:14 AM 66.6°F19.2°C 64.1°F17.8°C 92% Calm Calm 4.3 mph6.9 kmh 30.00 in1015.9 mb 0.00 in0.0 mm 0.00 in/hr0.0 mm/hr 0.00 in0.0 mm
12:09 AM 66.7°F19.3°C 64.2°F17.9°C 92% Calm Calm 3.7 mph6.0 kmh 30.00 in1015.9 mb 0.00 in0.0 mm 0.00 in/hr0.0 mm/hr 0.00 in0.0 mm
12:04 AM 66.7°F19.3°C 64.2°F17.9°C 92% Calm Calm 5.5 mph8.9 kmh 30.00 in1015.9 mb 0.00 in0.0 mm 0.00 in/hr0.0 mm/hr 0.00 in0.0 mm